Disclaimer

Please do not use the information listed here in-flight or in-navigation, as they are not provided to us by the airports but are provided by volunteers, so they might be outdated.

Search


Regions


Airport information page

Radio informations:
Tower (TWR) - 118.1 MHz
Ground (GND) - 121.9 MHz
SEOUL DEP - 125.15 MHz
Clearance delivery - 122.6 MHz
SEOUL APP - 120.8 MHz
BRICKWALL - 120.0 MHz
SEOUL RDO - 127.1 MHz

Airport informations:
Latitude: 37° 33' 29.92" N
Longitude: 126° 47' 26.11" E
Elevation: 58 feet - 18 meters
Operating hours: N/A
Operating agency: Civil government, landing fees and diplomatic clearance may be required
Timezone: UTC+9
Fuel: Jet A1+, Jet A1 with icing inhibitor.

115/145 octane gasoline, leaded, MIL-L-5572F (PURPLE)

Unknown fuel type or whether there is any fuel.

Runway information:
14R/32L - 10499 x 197 feet< - >3200 x 60 meters
14L/32R - 11811 x 148 feet< - >3600 x 45 meters

Recent METARs:
RKSS 201700Z 15005KT 8000 -RA FEW010 BKN030 OVC100 07/04 Q1024 NOSIG
RKSS 201700Z 15005KT 8000 -RA FEW010 BKN030 OVC100 07/04 Q1024 NOSIG
RKSS 201800Z 16005KT 8000 SCT030 OVC100 07/04 Q1024 NOSIG

Airport on the map: